createdAt,value
2018-07-31T00:00:54.694Z,0
2018-07-31T00:01:54.962Z,0
2018-07-31T00:02:54.688Z,0
2018-07-31T00:03:54.698Z,0
2018-07-31T00:04:54.957Z,0
2018-07-31T00:05:54.696Z,0
2018-07-31T00:06:54.690Z,0
2018-07-31T00:07:54.954Z,0
2018-07-31T00:08:54.945Z,0
2018-07-31T00:09:54.951Z,0
2018-07-31T00:10:54.987Z,0
2018-07-31T00:11:54.693Z,0
2018-07-31T00:12:54.690Z,0
2018-07-31T00:13:54.958Z,0
2018-07-31T00:14:54.951Z,0
2018-07-31T00:15:54.945Z,0
2018-07-31T00:16:54.956Z,0
2018-07-31T00:17:54.949Z,0
2018-07-31T00:18:54.944Z,0
2018-07-31T00:19:54.942Z,0
2018-07-31T00:20:54.937Z,0
2018-07-31T00:21:54.691Z,0
2018-07-31T00:22:54.682Z,0
2018-07-31T00:23:54.433Z,0
2018-07-31T00:24:54.681Z,0
2018-07-31T00:25:54.680Z,0
2018-07-31T00:26:54.937Z,0
2018-07-31T00:27:54.686Z,0
2018-07-31T00:28:54.943Z,0
2018-07-31T00:29:54.679Z,0
2018-07-31T00:30:54.937Z,0
2018-07-31T00:31:54.937Z,0
2018-07-31T00:32:54.689Z,0
2018-07-31T00:33:54.936Z,0
2018-07-31T00:34:54.421Z,0
2018-07-31T00:35:54.933Z,0
2018-07-31T00:36:54.678Z,0
2018-07-31T00:37:54.678Z,0
2018-07-31T00:38:54.693Z,0
2018-07-31T00:39:54.417Z,0
2018-07-31T00:40:54.926Z,0
2018-07-31T00:41:54.931Z,0
2018-07-31T00:42:54.670Z,0
2018-07-31T00:43:54.947Z,0
2018-07-31T00:44:54.668Z,0
2018-07-31T00:45:54.936Z,0
2018-07-31T00:46:54.927Z,0
2018-07-31T00:47:54.933Z,0
2018-07-31T00:48:54.934Z,0
2018-07-31T00:49:54.924Z,0
2018-07-31T00:50:54.926Z,0
2018-07-31T00:51:54.670Z,0
2018-07-31T00:52:54.927Z,0
2018-07-31T00:53:54.937Z,0
2018-07-31T00:54:54.922Z,0
2018-07-31T00:55:54.411Z,0
2018-07-31T00:56:54.926Z,0
2018-07-31T00:57:54.926Z,0
2018-07-31T00:58:54.675Z,0
2018-07-31T00:59:54.677Z,0
2018-07-31T01:00:54.412Z,0
2018-07-31T01:01:54.668Z,0
2018-07-31T01:02:54.673Z,0
2018-07-31T01:03:54.919Z,0
2018-07-31T01:04:54.666Z,0
2018-07-31T01:05:54.666Z,0
2018-07-31T01:06:54.671Z,0
2018-07-31T01:07:54.920Z,0
2018-07-31T01:08:54.935Z,0
2018-07-31T01:09:54.422Z,0
2018-07-31T01:10:55.023Z,0
2018-07-31T01:11:54.917Z,0
2018-07-31T01:12:54.921Z,0
2018-07-31T01:13:54.410Z,0
2018-07-31T01:14:54.666Z,0
2018-07-31T01:15:54.919Z,0
2018-07-31T01:16:54.921Z,0
2018-07-31T01:17:54.407Z,0
2018-07-31T01:18:54.911Z,0
2018-07-31T01:19:54.672Z,0
2018-07-31T01:20:54.912Z,0
2018-07-31T01:21:54.661Z,0
2018-07-31T01:22:54.923Z,0
2018-07-31T01:23:54.919Z,0
2018-07-31T01:24:54.662Z,0
2018-07-31T01:25:54.918Z,0
2018-07-31T01:26:54.656Z,0
2018-07-31T01:27:54.658Z,0
2018-07-31T01:28:54.653Z,0
2018-07-31T01:29:54.918Z,0
2018-07-31T01:30:54.652Z,0
2018-07-31T01:31:54.917Z,0
2018-07-31T01:32:54.656Z,0
2018-07-31T01:33:54.906Z,0
2018-07-31T01:34:54.396Z,0
2018-07-31T01:35:54.922Z,0
2018-07-31T01:36:54.914Z,0
2018-07-31T01:37:54.907Z,0
2018-07-31T01:38:54.658Z,0
2018-07-31T01:39:54.648Z,0
2018-07-31T01:40:54.911Z,0
2018-07-31T01:41:54.656Z,0
2018-07-31T01:42:54.913Z,0
2018-07-31T01:43:54.653Z,0
2018-07-31T01:44:54.912Z,0
2018-07-31T01:45:54.512Z,0
2018-07-31T01:46:54.908Z,0
2018-07-31T01:47:54.916Z,0
2018-07-31T01:48:54.654Z,0
2018-07-31T01:49:54.653Z,0
2018-07-31T01:50:54.653Z,0
2018-07-31T01:51:54.909Z,0
2018-07-31T01:52:54.905Z,0
2018-07-31T01:53:54.909Z,0
2018-07-31T01:54:54.652Z,0
2018-07-31T01:55:54.652Z,0
2018-07-31T01:56:54.913Z,0
2018-07-31T01:57:54.904Z,0
2018-07-31T01:58:54.644Z,0
2018-07-31T01:59:54.901Z,0
2018-07-31T02:00:54.900Z,0
2018-07-31T02:01:54.894Z,0
2018-07-31T02:02:54.644Z,0
2018-07-31T02:03:54.646Z,0
2018-07-31T02:04:54.902Z,0
2018-07-31T02:05:54.642Z,0
2018-07-31T02:06:54.641Z,0
2018-07-31T02:07:54.643Z,0
2018-07-31T02:08:54.649Z,0
2018-07-31T02:09:54.898Z,0
2018-07-31T02:10:54.647Z,0
2018-07-31T02:11:54.929Z,0
2018-07-31T02:12:54.900Z,0
2018-07-31T02:13:54.897Z,0
2018-07-31T02:14:54.900Z,0
2018-07-31T02:15:54.381Z,0
2018-07-31T02:16:54.650Z,0
2018-07-31T02:17:54.956Z,0
2018-07-31T02:18:54.894Z,0
2018-07-31T02:19:54.891Z,0
2018-07-31T02:20:54.897Z,0
2018-07-31T02:21:54.887Z,0
2018-07-31T02:22:54.380Z,0
2018-07-31T02:23:54.981Z,0
2018-07-31T02:24:54.894Z,0
2018-07-31T02:25:54.896Z,0
2018-07-31T02:26:54.895Z,0
2018-07-31T02:27:55.006Z,0
2018-07-31T02:28:54.899Z,0
2018-07-31T02:29:54.639Z,0
2018-07-31T02:30:54.905Z,0
2018-07-31T02:31:54.634Z,0
2018-07-31T02:32:54.889Z,0
2018-07-31T02:33:54.628Z,0
2018-07-31T02:34:54.882Z,0
2018-07-31T02:35:54.885Z,0
2018-07-31T02:36:54.901Z,0
2018-07-31T02:37:54.632Z,0
2018-07-31T02:38:54.629Z,0
2018-07-31T02:39:54.640Z,0
2018-07-31T02:40:54.885Z,0
2018-07-31T02:41:54.628Z,0
2018-07-31T02:42:54.628Z,0
2018-07-31T02:43:54.624Z,0
2018-07-31T02:44:54.901Z,0
2018-07-31T02:45:54.881Z,0
2018-07-31T02:46:54.836Z,0
2018-07-31T02:47:54.632Z,0
2018-07-31T02:48:54.883Z,0
2018-07-31T02:49:54.372Z,0
2018-07-31T02:50:54.630Z,0
2018-07-31T02:51:54.887Z,0
2018-07-31T02:52:54.906Z,0
2018-07-31T02:53:54.884Z,0
2018-07-31T02:54:54.619Z,0
2018-07-31T02:55:54.882Z,0
2018-07-31T02:56:54.890Z,0
2018-07-31T02:57:54.885Z,0
2018-07-31T02:58:54.106Z,4
2018-07-31T02:59:54.888Z,4
2018-07-31T03:00:54.897Z,0
2018-07-31T03:01:54.625Z,4
2018-07-31T03:02:54.892Z,4
2018-07-31T03:03:54.369Z,4
2018-07-31T03:04:54.876Z,4
2018-07-31T03:05:54.884Z,4
2018-07-31T03:06:54.872Z,8
2018-07-31T03:07:54.885Z,8
2018-07-31T03:08:54.620Z,8
2018-07-31T03:09:54.882Z,8
2018-07-31T03:10:54.355Z,12
2018-07-31T03:11:54.617Z,12
2018-07-31T03:12:54.614Z,16
2018-07-31T03:13:54.867Z,16
2018-07-31T03:14:54.869Z,16
2018-07-31T03:15:54.872Z,20
2018-07-31T03:16:54.617Z,24
2018-07-31T03:17:54.864Z,28
2018-07-31T03:18:54.864Z,32
2018-07-31T03:19:54.611Z,36
2018-07-31T03:20:54.611Z,44
2018-07-31T03:21:54.869Z,48
2018-07-31T03:22:54.608Z,56
2018-07-31T03:23:54.868Z,64
2018-07-31T03:24:54.606Z,68
2018-07-31T03:25:54.613Z,76
2018-07-31T03:26:54.857Z,84
2018-07-31T03:27:54.631Z,96
2018-07-31T03:28:54.617Z,104
2018-07-31T03:29:54.858Z,116
2018-07-31T03:30:54.865Z,128
2018-07-31T03:31:54.611Z,140
2018-07-31T03:32:54.856Z,152
2018-07-31T03:33:54.850Z,168
2018-07-31T03:34:54.602Z,180
2018-07-31T03:35:54.597Z,192
2018-07-31T03:36:54.343Z,208
2018-07-31T03:37:54.601Z,224
2018-07-31T03:38:54.845Z,244
2018-07-31T03:39:54.863Z,260
2018-07-31T03:40:54.850Z,280
2018-07-31T03:41:54.340Z,300
2018-07-31T03:42:54.851Z,320
2018-07-31T03:43:54.857Z,340
2018-07-31T03:44:54.860Z,364
2018-07-31T03:45:54.598Z,388
2018-07-31T03:46:54.849Z,408
2018-07-31T03:47:54.599Z,436
2018-07-31T03:48:54.849Z,464
2018-07-31T03:49:54.938Z,492
2018-07-31T03:50:54.596Z,520
2018-07-31T03:51:54.592Z,552
2018-07-31T03:52:54.589Z,580
2018-07-31T03:53:54.842Z,616
2018-07-31T03:54:54.842Z,644
2018-07-31T03:55:54.843Z,680
2018-07-31T03:56:54.849Z,716
2018-07-31T03:57:54.595Z,748
2018-07-31T03:58:54.849Z,780
2018-07-31T03:59:54.841Z,812
2018-07-31T04:00:54.844Z,848
2018-07-31T04:01:54.837Z,888
2018-07-31T04:02:54.842Z,924
2018-07-31T04:03:54.582Z,964
2018-07-31T04:04:54.835Z,1004
2018-07-31T04:05:54.588Z,1044
2018-07-31T04:06:54.587Z,1084
2018-07-31T04:07:54.591Z,1124
2018-07-31T04:08:54.581Z,1164
2018-07-31T04:09:54.842Z,1208
2018-07-31T04:10:54.587Z,1248
2018-07-31T04:11:54.587Z,1296
2018-07-31T04:12:54.582Z,1344
2018-07-31T04:13:54.583Z,1392
2018-07-31T04:14:54.842Z,1440
2018-07-31T04:15:54.589Z,1488
2018-07-31T04:16:54.745Z,1536
2018-07-31T04:17:54.584Z,1584
2018-07-31T04:18:54.843Z,1632
2018-07-31T04:19:54.580Z,1680
2018-07-31T04:20:54.838Z,1724
2018-07-31T04:21:54.837Z,1768
2018-07-31T04:22:54.842Z,1808
2018-07-31T04:23:54.838Z,1856
2018-07-31T04:24:54.842Z,1900
2018-07-31T04:25:54.590Z,1948
2018-07-31T04:26:54.592Z,1996
2018-07-31T04:27:54.844Z,2048
2018-07-31T04:28:54.837Z,2100
2018-07-31T04:29:54.580Z,2152
2018-07-31T04:30:54.837Z,2200
2018-07-31T04:31:54.590Z,2244
2018-07-31T04:32:54.582Z,2292
2018-07-31T04:33:54.579Z,2332
2018-07-31T04:34:54.319Z,2380
2018-07-31T04:35:55.169Z,2428
2018-07-31T04:36:54.332Z,2468
2018-07-31T04:37:54.843Z,2512
2018-07-31T04:38:54.843Z,2556
2018-07-31T04:39:54.836Z,2592
2018-07-31T04:40:54.582Z,2636
2018-07-31T04:41:54.583Z,2672
2018-07-31T04:42:54.581Z,2716
2018-07-31T04:43:54.846Z,2760
2018-07-31T04:44:54.847Z,2804
2018-07-31T04:45:54.578Z,2856
2018-07-31T04:46:54.581Z,2908
2018-07-31T04:47:54.841Z,2956
2018-07-31T04:48:54.841Z,2996
2018-07-31T04:49:54.324Z,3032
2018-07-31T04:50:54.845Z,3064
2018-07-31T04:51:54.583Z,3092
2018-07-31T04:52:54.845Z,3120
2018-07-31T04:53:54.847Z,3156
2018-07-31T04:54:54.334Z,3196
2018-07-31T04:55:54.836Z,3236
2018-07-31T04:56:54.760Z,3284
2018-07-31T04:57:54.585Z,3328
2018-07-31T04:58:54.588Z,3368
2018-07-31T04:59:54.586Z,3408
2018-07-31T05:00:54.585Z,3440
2018-07-31T05:01:54.591Z,3480
2018-07-31T05:02:54.847Z,3516
2018-07-31T05:03:54.597Z,3556
2018-07-31T05:04:54.600Z,3596
2018-07-31T05:05:54.364Z,3640
2018-07-31T05:06:54.849Z,3684
2018-07-31T05:07:54.599Z,3720
2018-07-31T05:08:54.592Z,3756
2018-07-31T05:09:54.593Z,3792
2018-07-31T05:10:54.335Z,3828
2018-07-31T05:11:54.854Z,3864
2018-07-31T05:12:54.591Z,3900
2018-07-31T05:13:54.611Z,3936
2018-07-31T05:14:54.601Z,3968
2018-07-31T05:15:54.852Z,3996
2018-07-31T05:16:54.595Z,4020
2018-07-31T05:17:54.858Z,4036
2018-07-31T05:18:54.867Z,4056
2018-07-31T05:19:54.855Z,4076
2018-07-31T05:20:54.603Z,4096
2018-07-31T05:21:54.602Z,4124
2018-07-31T05:22:54.607Z,4148
2018-07-31T05:23:54.865Z,4176
2018-07-31T05:24:54.606Z,4200
2018-07-31T05:25:54.609Z,4220
2018-07-31T05:26:54.865Z,4236
2018-07-31T05:27:54.599Z,4252
2018-07-31T05:28:54.613Z,4272
2018-07-31T05:29:54.862Z,4296
2018-07-31T05:30:54.867Z,4312
2018-07-31T05:31:54.871Z,4344
2018-07-31T05:32:55.599Z,4372
2018-07-31T05:33:54.871Z,4408
2018-07-31T05:34:54.609Z,4444
2018-07-31T05:35:54.616Z,4480
2018-07-31T05:36:54.873Z,4516
2018-07-31T05:37:54.618Z,4552
2018-07-31T05:38:54.876Z,4588
2018-07-31T05:39:54.875Z,4624
2018-07-31T05:40:54.874Z,4656
2018-07-31T05:41:54.622Z,4688
2018-07-31T05:42:54.881Z,4728
2018-07-31T05:43:54.624Z,4760
2018-07-31T05:44:54.891Z,4788
2018-07-31T05:45:54.626Z,4824
2018-07-31T05:46:54.884Z,4844
2018-07-31T05:47:54.628Z,4876
2018-07-31T05:48:54.373Z,4900
2018-07-31T05:49:54.900Z,4912
2018-07-31T05:50:54.903Z,4932
2018-07-31T05:51:55.255Z,4960
2018-07-31T05:52:54.894Z,4988
2018-07-31T05:53:54.898Z,5012
2018-07-31T05:54:54.896Z,5044
2018-07-31T05:55:54.897Z,5072
2018-07-31T05:56:54.643Z,5088
2018-07-31T05:57:54.904Z,5108
2018-07-31T05:58:54.645Z,5116
2018-07-31T05:59:54.903Z,5124
2018-07-31T06:00:54.653Z,5128
2018-07-31T06:01:54.924Z,5136
2018-07-31T06:02:54.914Z,5144
2018-07-31T06:03:54.142Z,5168
2018-07-31T06:04:54.664Z,5188
2018-07-31T06:05:54.917Z,5204
2018-07-31T06:06:54.664Z,5228
2018-07-31T06:07:54.664Z,5264
2018-07-31T06:08:54.918Z,5288
2018-07-31T06:09:54.668Z,5320
2018-07-31T06:10:54.924Z,5352
2018-07-31T06:11:54.939Z,5384
2018-07-31T06:12:54.686Z,5412
2018-07-31T06:13:54.938Z,5436
2018-07-31T06:14:54.943Z,5468
2018-07-31T06:15:54.728Z,5496
2018-07-31T06:16:54.941Z,5528
2018-07-31T06:17:54.949Z,5556
2018-07-31T06:18:54.689Z,5576
2018-07-31T06:19:54.961Z,5596
2018-07-31T06:20:54.947Z,5608
2018-07-31T06:21:54.698Z,5620
2018-07-31T06:22:54.947Z,5632
2018-07-31T06:23:54.962Z,5652
2018-07-31T06:24:54.715Z,5676
2018-07-31T06:25:54.961Z,5708
2018-07-31T06:26:54.976Z,5744
2018-07-31T06:27:54.457Z,5772
2018-07-31T06:28:54.971Z,5804
2018-07-31T06:29:54.467Z,5828
2018-07-31T06:30:54.720Z,5848
2018-07-31T06:31:54.461Z,5868
2018-07-31T06:32:55.238Z,5908
2018-07-31T06:33:54.986Z,6128
2018-07-31T06:34:54.991Z,6388
2018-07-31T06:35:54.720Z,6368
2018-07-31T06:36:54.988Z,6120
2018-07-31T06:37:54.746Z,6244
2018-07-31T06:38:54.992Z,6316
2018-07-31T06:39:54.740Z,6388
2018-07-31T06:40:55.002Z,8108
2018-07-31T06:41:55.005Z,10996
2018-07-31T06:42:55.005Z,9244
2018-07-31T06:43:55.006Z,7740
2018-07-31T06:44:55.006Z,8144
2018-07-31T06:45:54.752Z,8088
2018-07-31T06:46:55.009Z,9520
2018-07-31T06:47:55.093Z,13856
2018-07-31T06:48:55.051Z,16512
2018-07-31T06:49:55.020Z,15836
2018-07-31T06:50:55.040Z,13772
2018-07-31T06:51:55.025Z,20096
2018-07-31T06:52:55.029Z,29216
2018-07-31T06:53:54.785Z,33120
2018-07-31T06:54:55.041Z,35744
2018-07-31T06:55:55.044Z,35104
2018-07-31T06:56:54.668Z,35488
2018-07-31T06:57:55.050Z,36256
2018-07-31T06:58:54.796Z,35680
2018-07-31T06:59:55.057Z,35520
2018-07-31T07:00:55.062Z,35776
2018-07-31T07:01:55.063Z,35840
2018-07-31T07:02:54.813Z,35424
2018-07-31T07:03:54.829Z,34400
2018-07-31T07:04:55.094Z,33920
2018-07-31T07:05:54.845Z,31776
2018-07-31T07:06:55.103Z,33152
2018-07-31T07:07:54.847Z,34528
2018-07-31T07:08:55.107Z,33312
2018-07-31T07:09:55.125Z,33152
2018-07-31T07:10:55.121Z,34016
2018-07-31T07:11:54.917Z,35392
2018-07-31T07:12:55.141Z,35456
2018-07-31T07:13:54.891Z,34912
2018-07-31T07:14:54.890Z,35488
2018-07-31T07:15:55.154Z,36192
2018-07-31T07:16:54.911Z,37248
2018-07-31T07:17:54.922Z,39040
2018-07-31T07:18:54.929Z,37120
2018-07-31T07:19:54.927Z,35680
2018-07-31T07:20:54.685Z,36256
2018-07-31T07:21:54.953Z,37856
2018-07-31T07:22:54.962Z,40064
2018-07-31T07:23:54.984Z,41312
2018-07-31T07:24:54.982Z,39776
2018-07-31T07:25:54.993Z,40256
2018-07-31T07:26:55.272Z,42112
2018-07-31T07:27:55.167Z,40864
2018-07-31T07:28:55.017Z,40608
2018-07-31T07:29:54.775Z,40768
2018-07-31T07:30:55.296Z,41088
2018-07-31T07:31:54.791Z,43328
2018-07-31T07:32:55.061Z,42720
2018-07-31T07:33:55.841Z,39296
2018-07-31T07:34:55.080Z,38912
2018-07-31T07:35:54.839Z,41056
2018-07-31T07:36:55.112Z,42240
2018-07-31T07:37:55.114Z,43008
2018-07-31T07:38:55.129Z,40992
2018-07-31T07:39:55.136Z,39328
2018-07-31T07:40:55.402Z,38400
2018-07-31T07:41:55.414Z,29728
2018-07-31T07:42:55.421Z,16544
2018-07-31T07:43:55.439Z,9776
2018-07-31T07:44:55.453Z,9168
2018-07-31T07:45:55.513Z,8832
2018-07-31T07:46:55.476Z,8600
2018-07-31T07:47:55.487Z,8448
2018-07-31T07:48:55.496Z,8344
2018-07-31T07:49:55.257Z,8272
2018-07-31T07:50:55.565Z,8208
2018-07-31T07:51:55.539Z,8140
2018-07-31T07:52:55.543Z,8068
2018-07-31T07:53:55.816Z,8008
2018-07-31T07:54:55.581Z,7992
2018-07-31T07:55:55.579Z,7976
2018-07-31T07:56:55.335Z,7956
2018-07-31T07:57:55.350Z,7932
2018-07-31T07:58:55.615Z,7884
2018-07-31T07:59:55.111Z,7832
2018-07-31T08:00:55.638Z,7816
2018-07-31T08:01:55.654Z,7820
2018-07-31T08:02:55.151Z,7828
2018-07-31T08:03:55.272Z,7816
2018-07-31T08:04:55.685Z,7772
2018-07-31T08:05:55.441Z,7720
2018-07-31T08:06:55.455Z,7648
2018-07-31T08:07:55.466Z,7572
2018-07-31T08:08:55.740Z,7468
2018-07-31T08:09:55.720Z,7384
2018-07-31T08:10:55.236Z,7312
2018-07-31T08:11:55.499Z,7272
2018-07-31T08:12:55.252Z,7236
2018-07-31T08:13:55.551Z,7216
2018-07-31T08:14:55.565Z,7220
2018-07-31T08:15:55.819Z,7228
2018-07-31T08:16:55.296Z,7216
2018-07-31T08:17:55.828Z,7216
2018-07-31T08:18:55.315Z,7172
2018-07-31T08:19:55.838Z,7104
2018-07-31T08:20:55.852Z,7048
2018-07-31T08:21:55.865Z,7000
2018-07-31T08:22:55.876Z,6948
2018-07-31T08:23:55.872Z,6912
2018-07-31T08:24:55.640Z,6876
2018-07-31T08:25:55.902Z,6840
2018-07-31T08:26:55.905Z,6808
2018-07-31T08:27:56.060Z,6780
2018-07-31T08:28:55.424Z,6752
2018-07-31T08:29:55.940Z,6732
2018-07-31T08:30:55.947Z,6712
2018-07-31T08:31:55.703Z,6684
2018-07-31T08:32:55.961Z,6652
2018-07-31T08:33:55.968Z,6608
2018-07-31T08:34:55.983Z,6564
2018-07-31T08:35:55.990Z,6516
2018-07-31T08:36:56.003Z,6484
2018-07-31T08:37:56.002Z,6456
2018-07-31T08:38:56.016Z,6428
2018-07-31T08:39:56.022Z,6420
2018-07-31T08:40:56.026Z,6412
2018-07-31T08:41:55.524Z,6392
2018-07-31T08:42:56.056Z,6376
2018-07-31T08:43:55.797Z,6348
2018-07-31T08:44:55.551Z,6324
2018-07-31T08:45:55.822Z,6312
2018-07-31T08:46:56.084Z,6280
2018-07-31T08:47:55.832Z,6256
2018-07-31T08:48:55.845Z,6228
2018-07-31T08:49:56.112Z,6188
2018-07-31T08:50:55.866Z,6148
2018-07-31T08:51:55.618Z,6112
2018-07-31T08:52:55.880Z,6080
2018-07-31T08:53:56.145Z,6040
2018-07-31T08:54:55.894Z,5996
2018-07-31T08:55:56.084Z,5956
2018-07-31T08:56:56.289Z,5924
2018-07-31T08:57:56.172Z,5904
2018-07-31T08:58:55.925Z,5880
2018-07-31T08:59:55.931Z,5856
2018-07-31T09:00:55.688Z,5824
2018-07-31T09:01:55.955Z,5796
2018-07-31T09:02:56.178Z,5768
2018-07-31T09:03:55.969Z,5728
2018-07-31T09:04:56.240Z,5700
2018-07-31T09:05:55.733Z,5676
2018-07-31T09:06:56.259Z,5656
2018-07-31T09:07:55.746Z,5628
2018-07-31T09:08:56.622Z,5608
2018-07-31T09:09:56.030Z,5584
2018-07-31T09:10:56.314Z,5552
2018-07-31T09:11:56.030Z,5516
2018-07-31T09:12:56.038Z,5484
2018-07-31T09:13:55.789Z,5468
2018-07-31T09:14:56.309Z,5448
2018-07-31T09:15:56.319Z,5432
2018-07-31T09:16:56.074Z,5408
2018-07-31T09:17:56.334Z,5384
2018-07-31T09:18:56.085Z,5364
2018-07-31T09:19:56.348Z,5336
2018-07-31T09:20:56.439Z,5316
2018-07-31T09:21:56.366Z,5316
2018-07-31T09:22:56.121Z,5344
2018-07-31T09:23:56.388Z,5376
2018-07-31T09:24:56.705Z,5392
2018-07-31T09:25:56.403Z,5392
2018-07-31T09:26:56.155Z,5392
2018-07-31T09:27:56.169Z,5408
2018-07-31T09:28:56.423Z,5436
2018-07-31T09:29:56.437Z,5452
2018-07-31T09:30:56.581Z,5420
2018-07-31T09:31:56.191Z,5376
2018-07-31T09:32:56.208Z,5364
2018-07-31T09:33:56.465Z,5388
2018-07-31T09:34:56.492Z,5404
2018-07-31T09:35:56.225Z,5416
2018-07-31T09:36:56.489Z,5432
2018-07-31T09:37:56.505Z,5460
2018-07-31T09:38:56.511Z,5544
2018-07-31T09:39:56.520Z,5712
2018-07-31T09:40:56.520Z,5768
2018-07-31T09:41:56.527Z,5956
2018-07-31T09:42:56.281Z,6008
2018-07-31T09:43:56.553Z,5964
2018-07-31T09:44:56.299Z,5952
2018-07-31T09:45:56.318Z,6112
2018-07-31T09:46:56.064Z,6092
2018-07-31T09:47:56.328Z,6088
2018-07-31T09:48:55.818Z,6176
2018-07-31T09:49:56.610Z,6320
2018-07-31T09:50:56.606Z,6212
2018-07-31T09:51:56.356Z,6164
2018-07-31T09:52:56.360Z,6056
2018-07-31T09:53:56.376Z,5856
2018-07-31T09:54:56.637Z,5792
2018-07-31T09:55:56.135Z,5904
2018-07-31T09:56:56.398Z,6100
2018-07-31T09:57:56.663Z,6156
2018-07-31T09:58:55.903Z,6184
2018-07-31T09:59:56.686Z,6144
2018-07-31T10:00:56.444Z,6092
2018-07-31T10:01:56.692Z,6120
2018-07-31T10:02:56.445Z,6308
2018-07-31T10:03:56.461Z,6548
2018-07-31T10:04:56.811Z,6660
2018-07-31T10:05:56.727Z,6668
2018-07-31T10:06:56.747Z,6660
2018-07-31T10:07:56.740Z,6444
2018-07-31T10:08:56.756Z,6352
2018-07-31T10:09:56.760Z,6444
2018-07-31T10:10:56.770Z,6516
2018-07-31T10:11:57.144Z,6644
2018-07-31T10:12:56.275Z,6980
2018-07-31T10:13:56.550Z,7112
2018-07-31T10:14:56.810Z,7344
2018-07-31T10:15:56.301Z,7576
2018-07-31T10:16:56.573Z,7828
2018-07-31T10:17:57.161Z,8032
2018-07-31T10:18:56.581Z,7856
2018-07-31T10:19:56.338Z,7644
2018-07-31T10:20:56.599Z,7864
2018-07-31T10:21:56.356Z,8040
2018-07-31T10:22:56.623Z,8040
2018-07-31T10:23:56.886Z,7888
2018-07-31T10:24:56.639Z,7712
2018-07-31T10:25:56.650Z,7740
2018-07-31T10:26:56.654Z,7960
2018-07-31T10:27:56.675Z,7700
2018-07-31T10:28:56.934Z,7224
2018-07-31T10:29:56.684Z,7008
2018-07-31T10:30:57.147Z,6868
2018-07-31T10:31:56.702Z,6736
2018-07-31T10:32:56.709Z,6596
2018-07-31T10:33:56.718Z,6420
2018-07-31T10:34:56.723Z,6284
2018-07-31T10:35:56.995Z,6208
2018-07-31T10:36:56.750Z,6180
2018-07-31T10:37:57.297Z,6248
2018-07-31T10:38:56.766Z,6484
2018-07-31T10:39:56.769Z,6788
2018-07-31T10:40:56.525Z,6980
2018-07-31T10:41:56.539Z,6988
2018-07-31T10:42:56.539Z,7000
2018-07-31T10:43:56.949Z,6928
2018-07-31T10:44:56.816Z,6900
2018-07-31T10:45:57.084Z,7000
2018-07-31T10:46:56.587Z,7124
2018-07-31T10:47:56.875Z,7264
2018-07-31T10:48:56.995Z,7236
2018-07-31T10:49:56.649Z,7012
2018-07-31T10:50:57.141Z,7008
2018-07-31T10:51:57.137Z,6988
2018-07-31T10:52:56.634Z,6804
2018-07-31T10:53:57.155Z,6436
2018-07-31T10:54:57.223Z,6096
2018-07-31T10:55:57.170Z,6028
2018-07-31T10:56:56.930Z,6008
2018-07-31T10:57:57.282Z,5956
2018-07-31T10:58:56.691Z,5984
2018-07-31T10:59:57.191Z,5992
2018-07-31T11:00:56.968Z,6052
2018-07-31T11:01:56.973Z,6224
2018-07-31T11:02:57.767Z,6360
2018-07-31T11:03:57.307Z,6528
2018-07-31T11:04:57.256Z,6560
2018-07-31T11:05:56.749Z,6540
2018-07-31T11:06:57.272Z,6756
2018-07-31T11:07:56.770Z,7120
2018-07-31T11:08:57.047Z,7456
2018-07-31T11:09:57.044Z,7588
2018-07-31T11:10:57.068Z,7648
2018-07-31T11:11:57.344Z,7584
2018-07-31T11:12:56.822Z,7484
2018-07-31T11:13:57.093Z,7464
2018-07-31T11:14:56.860Z,7524
2018-07-31T11:15:57.368Z,7468
2018-07-31T11:16:57.370Z,7168
2018-07-31T11:17:57.380Z,7088
2018-07-31T11:18:57.388Z,6984
2018-07-31T11:19:57.413Z,6820
2018-07-31T11:20:56.986Z,6676
2018-07-31T11:21:57.419Z,6556
2018-07-31T11:22:57.437Z,6328
2018-07-31T11:23:56.923Z,6112
2018-07-31T11:24:57.461Z,5900
2018-07-31T11:25:57.204Z,5232
2018-07-31T11:26:56.692Z,5060
2018-07-31T11:27:57.214Z,5236
2018-07-31T11:28:57.482Z,5484
2018-07-31T11:29:57.487Z,5976
2018-07-31T11:30:57.245Z,6140
2018-07-31T11:31:57.508Z,6252
2018-07-31T11:32:57.583Z,6240
2018-07-31T11:33:57.028Z,6260
2018-07-31T11:34:57.535Z,5752
2018-07-31T11:35:57.289Z,5700
2018-07-31T11:36:57.553Z,5888
2018-07-31T11:37:57.306Z,6220
2018-07-31T11:38:57.600Z,6396
2018-07-31T11:39:57.576Z,6356
2018-07-31T11:40:57.588Z,6452
2018-07-31T11:41:57.606Z,6404
2018-07-31T11:42:57.375Z,6368
2018-07-31T11:43:56.903Z,6528
2018-07-31T11:44:57.366Z,6588
2018-07-31T11:45:57.639Z,6596
2018-07-31T11:46:57.644Z,6408
2018-07-31T11:47:57.392Z,6108
2018-07-31T11:48:57.667Z,5872
2018-07-31T11:49:57.796Z,5816
2018-07-31T11:50:57.674Z,5864
2018-07-31T11:51:57.433Z,5928
2018-07-31T11:52:57.441Z,6056
2018-07-31T11:53:57.703Z,6272
2018-07-31T11:54:57.457Z,6548
2018-07-31T11:55:57.872Z,6772
2018-07-31T11:56:57.226Z,6764
2018-07-31T11:57:57.484Z,6696
2018-07-31T11:58:57.745Z,6672
2018-07-31T11:59:57.761Z,6672
2018-07-31T12:00:57.775Z,6724
2018-07-31T12:01:57.601Z,6988
2018-07-31T12:02:57.565Z,7404
2018-07-31T12:03:57.280Z,7504
2018-07-31T12:04:57.803Z,7312
2018-07-31T12:05:57.809Z,7080
2018-07-31T12:06:57.558Z,7116
2018-07-31T12:07:57.824Z,7168
2018-07-31T12:08:57.591Z,7212
2018-07-31T12:09:57.701Z,7352
2018-07-31T12:10:57.855Z,7552
2018-07-31T12:11:57.344Z,7544
2018-07-31T12:12:57.869Z,7284
2018-07-31T12:13:57.489Z,6968
2018-07-31T12:14:57.640Z,6628
2018-07-31T12:15:57.945Z,6376
2018-07-31T12:16:57.646Z,6236
2018-07-31T12:17:57.651Z,5976
2018-07-31T12:18:57.664Z,5608
2018-07-31T12:19:57.933Z,5232
2018-07-31T12:20:58.279Z,4984
2018-07-31T12:21:57.940Z,4952
2018-07-31T12:22:57.966Z,5012
2018-07-31T12:23:57.956Z,5096
2018-07-31T12:24:57.708Z,5116
2018-07-31T12:25:57.717Z,5220
2018-07-31T12:26:57.912Z,5328
2018-07-31T12:27:57.731Z,5152
2018-07-31T12:28:58.000Z,5104
2018-07-31T12:29:58.009Z,5132
2018-07-31T12:30:57.761Z,5136
2018-07-31T12:31:57.769Z,5280
2018-07-31T12:32:58.282Z,5468
2018-07-31T12:33:57.527Z,5484
2018-07-31T12:34:58.052Z,5348
2018-07-31T12:35:58.058Z,5296
2018-07-31T12:36:58.063Z,5368
2018-07-31T12:37:58.371Z,5312
2018-07-31T12:38:57.828Z,5184
2018-07-31T12:39:58.091Z,5068
2018-07-31T12:40:58.093Z,4964
2018-07-31T12:41:58.099Z,5028
2018-07-31T12:42:58.116Z,5036
2018-07-31T12:43:57.887Z,4996
2018-07-31T12:44:58.125Z,4940
2018-07-31T12:45:58.134Z,4996
2018-07-31T12:46:58.196Z,5096
2018-07-31T12:47:58.149Z,5212
2018-07-31T12:48:58.166Z,5316
2018-07-31T12:49:57.907Z,5368
2018-07-31T12:50:57.967Z,5376
2018-07-31T12:51:57.922Z,5384
2018-07-31T12:52:58.184Z,5420
2018-07-31T12:53:57.679Z,5376
2018-07-31T12:54:57.939Z,5228
2018-07-31T12:55:58.219Z,4980
2018-07-31T12:56:57.966Z,4768
2018-07-31T12:57:57.975Z,4644
2018-07-31T12:58:57.972Z,4648
2018-07-31T12:59:58.430Z,4824
2018-07-31T13:00:58.027Z,5108
2018-07-31T13:01:57.769Z,5512
2018-07-31T13:02:58.044Z,5896
2018-07-31T13:03:58.007Z,6124
2018-07-31T13:04:58.029Z,6080
2018-07-31T13:05:58.128Z,5688
2018-07-31T13:06:58.037Z,5208
2018-07-31T13:07:58.296Z,4848
2018-07-31T13:08:58.304Z,4756
2018-07-31T13:09:58.316Z,4808
2018-07-31T13:10:58.058Z,4880
2018-07-31T13:11:58.076Z,4928
2018-07-31T13:12:58.077Z,4880
2018-07-31T13:13:58.340Z,4720
2018-07-31T13:14:58.351Z,4480
2018-07-31T13:15:58.095Z,4228
2018-07-31T13:16:58.098Z,4048
2018-07-31T13:17:58.114Z,3968
2018-07-31T13:18:57.940Z,3908
2018-07-31T13:19:58.124Z,3892
2018-07-31T13:20:58.136Z,3856
2018-07-31T13:21:58.397Z,3816
2018-07-31T13:22:58.696Z,3732
2018-07-31T13:23:58.409Z,3644
2018-07-31T13:24:58.417Z,3592
2018-07-31T13:25:58.420Z,3520
2018-07-31T13:26:58.430Z,3464
2018-07-31T13:27:58.639Z,3464
2018-07-31T13:28:58.181Z,3496
2018-07-31T13:29:58.448Z,3568
2018-07-31T13:30:58.547Z,3608
2018-07-31T13:31:58.461Z,3652
2018-07-31T13:32:58.215Z,3672
2018-07-31T13:33:58.477Z,3700
2018-07-31T13:34:58.481Z,3764
2018-07-31T13:35:58.492Z,3820
2018-07-31T13:36:58.252Z,3884
2018-07-31T13:37:58.245Z,3972